createdAt,value
2017-02-05T00:01:08.496Z,79.19
2017-02-05T00:02:17.999Z,79.47
2017-02-05T00:03:27.741Z,79.28
2017-02-05T00:04:37.645Z,79.28
2017-02-05T00:05:47.515Z,79.38
2017-02-05T00:06:56.960Z,79.85
2017-02-05T00:08:07.262Z,79.76
2017-02-05T00:09:17.830Z,79.57
2017-02-05T00:10:28.083Z,79.57
2017-02-05T00:11:38.384Z,79.95
2017-02-05T00:12:48.615Z,80.14
2017-02-05T00:13:58.902Z,79.91
2017-02-05T00:15:08.604Z,80.67
2017-02-05T00:16:18.851Z,80.71
2017-02-05T00:17:28.726Z,80.71
2017-02-05T00:18:38.990Z,80.62
2017-02-05T00:19:48.834Z,80.43
2017-02-05T00:20:59.436Z,80.57
2017-02-05T00:22:09.730Z,80.19
2017-02-05T00:23:19.205Z,80.43
2017-02-05T00:24:29.545Z,80.62
2017-02-05T00:25:39.401Z,80.43
2017-02-05T00:26:49.994Z,80.52
2017-02-05T00:28:00.231Z,80.62
2017-02-05T00:29:09.903Z,80.24
2017-02-05T00:30:20.151Z,80.62
2017-02-05T00:31:29.999Z,80.62
2017-02-05T00:32:40.594Z,80.62
2017-02-05T00:33:50.860Z,80.67
2017-02-05T00:35:01.214Z,80.57
2017-02-05T00:36:11.042Z,80.38
2017-02-05T00:37:21.277Z,80.57
2017-02-05T00:38:31.940Z,80.52
2017-02-05T00:39:42.215Z,80.19
2017-02-05T00:40:52.523Z,80.62
2017-02-05T00:42:02.815Z,80.71
2017-02-05T00:43:13.057Z,80.71
2017-02-05T00:44:22.352Z,80.8
2017-02-05T00:45:32.193Z,80.9
2017-02-05T00:46:42.447Z,81.18
2017-02-05T00:47:52.281Z,80.62
2017-02-05T00:49:02.533Z,80.99
2017-02-05T00:50:13.052Z,81.09
2017-02-05T00:51:22.084Z,80.52
2017-02-05T00:52:31.921Z,80.9
2017-02-05T00:53:41.820Z,80.33
2017-02-05T00:54:51.722Z,81.18
2017-02-05T00:56:02.223Z,80.99
2017-02-05T00:57:12.688Z,81.18
2017-02-05T00:58:22.613Z,80.9
2017-02-05T00:59:33.188Z,81.09
2017-02-05T01:00:42.751Z,81.18
2017-02-05T01:01:53.033Z,80.9
2017-02-05T01:03:02.883Z,80.9
2017-02-05T01:04:12.013Z,81.09
2017-02-05T01:05:22.272Z,80.9
2017-02-05T01:06:32.121Z,81.18
2017-02-05T01:07:42.756Z,80.52
2017-02-05T01:08:53.028Z,80.33
2017-02-05T01:10:03.402Z,80.33
2017-02-05T01:11:13.290Z,80.43
2017-02-05T01:12:23.631Z,80.52
2017-02-05T01:13:34.155Z,80.62
2017-02-05T01:14:44.452Z,80.71
2017-02-05T01:15:54.289Z,80.71
2017-02-05T01:17:03.872Z,80.62
2017-02-05T01:18:14.223Z,80.52
2017-02-05T01:19:24.363Z,80.52
2017-02-05T01:20:34.625Z,80.52
2017-02-05T01:21:44.981Z,80.62
2017-02-05T01:22:55.374Z,80.71
2017-02-05T01:24:04.867Z,80.71
2017-02-05T01:25:15.366Z,80.8
2017-02-05T01:26:24.822Z,80.71
2017-02-05T01:27:35.117Z,80.52
2017-02-05T01:28:45.393Z,80.52
2017-02-05T01:29:55.643Z,81.18
2017-02-05T01:31:06.187Z,81.18
2017-02-05T01:32:16.055Z,80.52
2017-02-05T01:33:26.409Z,80.52
2017-02-05T01:34:36.747Z,81.09
2017-02-05T01:35:47.033Z,80.24
2017-02-05T01:36:57.114Z,80.9
2017-02-05T01:38:06.959Z,80.8
2017-02-05T01:39:16.813Z,80.52
2017-02-05T01:40:27.092Z,80.52
2017-02-05T01:41:37.381Z,80.33
2017-02-05T01:42:47.498Z,80.9
2017-02-05T01:43:57.400Z,80.9
2017-02-05T01:45:07.691Z,80.99
2017-02-05T01:46:17.753Z,81.09
2017-02-05T01:47:27.185Z,80.9
2017-02-05T01:48:37.877Z,81.27
2017-02-05T01:49:47.765Z,80.8
2017-02-05T01:50:58.045Z,80.99
2017-02-05T01:52:07.477Z,81.47
2017-02-05T01:53:17.343Z,81.18
2017-02-05T01:54:27.061Z,80.9
2017-02-05T01:55:37.307Z,80.9
2017-02-05T01:56:47.144Z,80.9
2017-02-05T01:57:56.984Z,81.27
2017-02-05T01:59:06.834Z,81.27
2017-02-05T02:00:16.920Z,81.09
2017-02-05T02:01:26.462Z,81.09
2017-02-05T02:02:36.743Z,81.27
2017-02-05T02:03:47.023Z,81.18
2017-02-05T02:04:56.869Z,80.99
2017-02-05T02:06:06.978Z,80.9
2017-02-05T02:07:16.806Z,80.9
2017-02-05T02:08:27.071Z,81.09
2017-02-05T02:09:36.506Z,81.47
2017-02-05T02:10:46.757Z,81.37
2017-02-05T02:11:57.009Z,81.43
2017-02-05T02:13:07.258Z,81.37
2017-02-05T02:14:17.492Z,81.09
2017-02-05T02:15:27.434Z,81.47
2017-02-05T02:16:37.260Z,81.47
2017-02-05T02:17:47.751Z,81.43
2017-02-05T02:18:58.017Z,81.9
2017-02-05T02:20:07.863Z,81.43
2017-02-05T02:21:18.139Z,81.43
2017-02-05T02:22:28.352Z,81.71
2017-02-05T02:23:39.016Z,81.43
2017-02-05T02:24:48.859Z,81.71
2017-02-05T02:25:58.724Z,81.62
2017-02-05T02:27:08.567Z,81.71
2017-02-05T02:28:18.801Z,81.62
2017-02-05T02:29:29.320Z,81.81
2017-02-05T02:30:39.664Z,81.99
2017-02-05T02:31:49.528Z,82.18
2017-02-05T02:32:59.779Z,81.99
2017-02-05T02:34:10.084Z,82.28
2017-02-05T02:35:20.251Z,81.9
2017-02-05T02:36:30.145Z,82.37
2017-02-05T02:37:40.392Z,82.28
2017-02-05T02:38:50.231Z,82.09
2017-02-05T02:40:00.519Z,82.09
2017-02-05T02:41:10.206Z,82.09
2017-02-05T02:42:20.063Z,82.37
2017-02-05T02:43:30.400Z,82.37
2017-02-05T02:44:40.252Z,82.28
2017-02-05T02:45:50.627Z,81.99
2017-02-05T02:47:00.810Z,82.28
2017-02-05T02:48:10.256Z,82.28
2017-02-05T02:49:20.528Z,82.23
2017-02-05T02:50:30.369Z,82.13
2017-02-05T02:51:40.220Z,82.23
2017-02-05T02:52:50.740Z,81.66
2017-02-05T02:54:00.574Z,81.66
2017-02-05T02:55:10.448Z,81.62
2017-02-05T02:56:20.682Z,81.75
2017-02-05T02:57:30.914Z,81.37
2017-02-05T02:58:41.394Z,81.33
2017-02-05T02:59:51.638Z,81.71
2017-02-05T03:01:01.877Z,81.71
2017-02-05T03:02:12.172Z,81.52
2017-02-05T03:03:22.414Z,81.99
2017-02-05T03:04:32.555Z,81.99
2017-02-05T03:05:42.053Z,82.09
2017-02-05T03:06:51.903Z,82.37
2017-02-05T03:08:01.769Z,82.47
2017-02-05T03:09:12.038Z,82.56
2017-02-05T03:10:21.768Z,82.56
2017-02-05T03:11:31.998Z,82.18
2017-02-05T03:12:41.931Z,82.18
2017-02-05T03:13:52.158Z,82.37
2017-02-05T03:15:02.008Z,82.37
2017-02-05T03:16:11.734Z,82.18
2017-02-05T03:17:21.572Z,82.37
2017-02-05T03:18:31.410Z,82.18
2017-02-05T03:19:41.795Z,82.18
2017-02-05T03:20:51.730Z,82.09
2017-02-05T03:22:02.287Z,82.56
2017-02-05T03:23:11.325Z,82.56
2017-02-05T03:24:21.627Z,82.47
2017-02-05T03:25:31.967Z,82.47
2017-02-05T03:26:41.842Z,82.09
2017-02-05T03:27:51.978Z,82.47
2017-02-05T03:29:02.354Z,82.94
2017-02-05T03:30:11.793Z,82.28
2017-02-05T03:31:21.626Z,82.47
2017-02-05T03:32:31.894Z,82.18
2017-02-05T03:33:42.433Z,82.66
2017-02-05T03:34:52.278Z,82.66
2017-02-05T03:36:01.307Z,82.94
2017-02-05T03:37:11.174Z,83.13
2017-02-05T03:38:21.435Z,82.94
2017-02-05T03:39:31.586Z,82.66
2017-02-05T03:40:41.472Z,83.13
2017-02-05T03:41:51.811Z,82.66
2017-02-05T03:43:01.727Z,83.13
2017-02-05T03:44:11.571Z,83.13
2017-02-05T03:45:22.058Z,82.56
2017-02-05T03:46:31.527Z,83.13
2017-02-05T03:47:41.379Z,83.04
2017-02-05T03:48:51.207Z,83.04
2017-02-05T03:50:01.041Z,83.04
2017-02-05T03:51:11.518Z,83.04
2017-02-05T03:52:21.374Z,83.23
2017-02-05T03:53:30.807Z,82.94
2017-02-05T03:54:41.050Z,83.13
2017-02-05T03:55:50.899Z,82.85
2017-02-05T03:57:01.394Z,82.94
2017-02-05T03:58:11.268Z,82.94
2017-02-05T03:59:21.536Z,83.04
2017-02-05T04:00:31.795Z,82.94
2017-02-05T04:01:41.670Z,83.13
2017-02-05T04:02:52.199Z,83.04
2017-02-05T04:04:02.108Z,82.85
2017-02-05T04:05:12.417Z,83.13
2017-02-05T04:06:22.695Z,83.13
2017-02-05T04:07:32.937Z,82.85
2017-02-05T04:08:43.444Z,82.94
2017-02-05T04:09:53.697Z,83.13
2017-02-05T04:11:03.598Z,83.23
2017-02-05T04:12:13.708Z,83.04
2017-02-05T04:13:24.025Z,82.75
2017-02-05T04:14:34.506Z,83.04
2017-02-05T04:15:44.795Z,83.13
2017-02-05T04:16:55.037Z,83.17
2017-02-05T04:18:04.932Z,83.13
2017-02-05T04:19:14.759Z,82.13
2017-02-05T04:20:25.330Z,82.89
2017-02-05T04:21:34.794Z,82.23
2017-02-05T04:22:45.059Z,82.51
2017-02-05T04:23:55.567Z,82.42
2017-02-05T04:25:06.678Z,82.51
2017-02-05T04:26:18.150Z,82.32
2017-02-05T04:27:27.582Z,82.28
2017-02-05T04:28:37.478Z,82.47
2017-02-05T04:29:47.584Z,82.47
2017-02-05T04:30:59.252Z,82.56
2017-02-05T04:32:09.989Z,82.47
2017-02-05T04:33:21.040Z,82.28
2017-02-05T04:34:30.073Z,82.37
2017-02-05T04:35:41.550Z,82.18
2017-02-05T04:36:52.073Z,82.37
2017-02-05T04:38:02.558Z,82.09
2017-02-05T04:39:11.599Z,82.47
2017-02-05T04:40:22.355Z,82.28
2017-02-05T04:41:32.228Z,82.47
2017-02-05T04:42:42.497Z,82.09
2017-02-05T04:43:52.577Z,82.37
2017-02-05T04:45:02.853Z,82.51
2017-02-05T04:46:13.124Z,82.51
2017-02-05T04:47:23.049Z,82.18
2017-02-05T04:48:33.298Z,82.18
2017-02-05T04:49:43.426Z,82.51
2017-02-05T04:50:53.681Z,82.13
2017-02-05T04:52:03.955Z,81.94
2017-02-05T04:53:13.384Z,82.13
2017-02-05T04:54:23.665Z,82.32
2017-02-05T04:55:34.184Z,82.13
2017-02-05T04:56:44.519Z,81.99
2017-02-05T04:57:54.791Z,82.13
2017-02-05T04:59:05.075Z,81.94
2017-02-05T05:00:15.322Z,81.9
2017-02-05T05:01:25.512Z,81.99
2017-02-05T05:02:35.767Z,82.13
2017-02-05T05:03:45.607Z,82.09
2017-02-05T05:04:55.476Z,82.09
2017-02-05T05:06:05.311Z,81.99
2017-02-05T05:07:15.881Z,82.18
2017-02-05T05:08:26.278Z,82.51
2017-02-05T05:09:36.509Z,82.56
2017-02-05T05:10:46.753Z,82.47
2017-02-05T05:11:56.606Z,82.47
2017-02-05T05:13:06.984Z,82.47
2017-02-05T05:14:17.272Z,82.6
2017-02-05T05:15:27.510Z,82.09
2017-02-05T05:16:36.991Z,82.75
2017-02-05T05:17:47.235Z,82.32
2017-02-05T05:18:56.980Z,82.23
2017-02-05T05:20:06.821Z,82.04
2017-02-05T05:21:17.223Z,81.81
2017-02-05T05:22:27.482Z,82.32
2017-02-05T05:23:37.742Z,81.52
2017-02-05T05:24:47.875Z,81.99
2017-02-05T05:25:57.753Z,81.99
2017-02-05T05:27:07.590Z,81.62
2017-02-05T05:28:17.883Z,81.71
2017-02-05T05:29:27.768Z,81.43
2017-02-05T05:30:37.498Z,81.43
2017-02-05T05:31:46.582Z,81.62
2017-02-05T05:32:56.425Z,82.18
2017-02-05T05:34:06.263Z,82.09
2017-02-05T05:35:16.091Z,82.28
2017-02-05T05:36:26.228Z,82.09
2017-02-05T05:37:36.523Z,82.37
2017-02-05T05:38:46.750Z,82.37
2017-02-05T05:39:57.018Z,81.99
2017-02-05T05:41:06.892Z,82.09
2017-02-05T05:42:17.440Z,82.47
2017-02-05T05:43:27.760Z,82.37
2017-02-05T05:44:37.998Z,82.51
2017-02-05T05:45:47.966Z,82.18
2017-02-05T05:46:58.248Z,82.42
2017-02-05T05:48:08.829Z,81.85
2017-02-05T05:49:19.105Z,82.13
2017-02-05T05:50:28.981Z,82.32
2017-02-05T05:51:38.804Z,82.13
2017-02-05T05:52:49.051Z,82.32
2017-02-05T05:53:59.562Z,81.94
2017-02-05T05:55:09.487Z,81.94
2017-02-05T05:56:19.741Z,81.94
2017-02-05T05:57:30.076Z,82.23
2017-02-05T05:58:39.577Z,82.13
2017-02-05T05:59:49.690Z,82.23
2017-02-05T06:00:59.538Z,82.32
2017-02-05T06:02:09.129Z,82.32
2017-02-05T06:03:18.951Z,81.94
2017-02-05T06:04:29.357Z,81.66
2017-02-05T06:05:39.847Z,81.37
2017-02-05T06:06:50.229Z,81.47
2017-02-05T06:08:00.628Z,81.75
2017-02-05T06:09:10.061Z,81.66
2017-02-05T06:10:20.066Z,81.47
2017-02-05T06:11:30.652Z,81.75
2017-02-05T06:12:40.923Z,81.47
2017-02-05T06:13:50.358Z,81.85
2017-02-05T06:15:00.652Z,81.94
2017-02-05T06:16:10.886Z,81.85
2017-02-05T06:17:21.063Z,81.56
2017-02-05T06:18:31.033Z,81.85
2017-02-05T06:19:41.307Z,81.85
2017-02-05T06:20:51.241Z,81.66
2017-02-05T06:22:01.532Z,82.23
2017-02-05T06:23:10.853Z,82.04
2017-02-05T06:24:20.679Z,82.13
2017-02-05T06:25:30.919Z,82.32
2017-02-05T06:26:40.761Z,82.32
2017-02-05T06:27:50.593Z,82.23
2017-02-05T06:29:01.102Z,81.94
2017-02-05T06:30:11.409Z,82.23
2017-02-05T06:31:21.678Z,82.42
2017-02-05T06:32:31.179Z,81.47
2017-02-05T06:33:41.421Z,81.66
2017-02-05T06:34:51.907Z,81.37
2017-02-05T06:36:01.791Z,81.56
2017-02-05T06:37:12.025Z,81.66
2017-02-05T06:38:21.509Z,81.27
2017-02-05T06:39:30.960Z,81.66
2017-02-05T06:40:41.161Z,81.37
2017-02-05T06:41:50.994Z,81.37
2017-02-05T06:43:01.269Z,81.47
2017-02-05T06:44:11.114Z,81.47
2017-02-05T06:45:21.409Z,81.47
2017-02-05T06:46:31.933Z,81.27
2017-02-05T06:47:41.757Z,81.56
2017-02-05T06:48:51.191Z,81.56
2017-02-05T06:50:01.143Z,81.66
2017-02-05T06:51:10.996Z,81.75
2017-02-05T06:52:20.743Z,81.75
2017-02-05T06:53:30.985Z,81.27
2017-02-05T06:54:40.834Z,81.66
2017-02-05T06:55:50.669Z,81.85
2017-02-05T06:57:00.540Z,81.27
2017-02-05T06:58:11.144Z,81.56
2017-02-05T06:59:21.484Z,81.85
2017-02-05T07:00:31.789Z,81.66
2017-02-05T07:01:41.625Z,81.56
2017-02-05T07:02:51.858Z,81.85
2017-02-05T07:04:02.078Z,81.66
2017-02-05T07:05:11.551Z,81.37
2017-02-05T07:06:21.808Z,81.85
2017-02-05T07:07:32.076Z,81.47
2017-02-05T07:08:41.928Z,81.56
2017-02-05T07:09:52.061Z,81.56
2017-02-05T07:11:02.350Z,82.23
2017-02-05T07:12:12.635Z,82.04
2017-02-05T07:13:22.915Z,82.32
2017-02-05T07:14:32.428Z,82.89
2017-02-05T07:15:42.599Z,82.13
2017-02-05T07:16:52.445Z,82.51
2017-02-05T07:18:02.769Z,82.32
2017-02-05T07:19:13.032Z,82.13
2017-02-05T07:20:22.896Z,82.32
2017-02-05T07:21:32.986Z,82.23
2017-02-05T07:22:43.267Z,81.37
2017-02-05T07:23:53.558Z,81.27
2017-02-05T07:25:02.998Z,81.37
2017-02-05T07:26:13.252Z,81.66
2017-02-05T07:27:23.363Z,81.47
2017-02-05T07:28:32.813Z,81.75
2017-02-05T07:29:43.088Z,81.37
2017-02-05T07:30:53.350Z,82.13
2017-02-05T07:32:03.182Z,82.32
2017-02-05T07:33:13.742Z,82.23
2017-02-05T07:34:23.627Z,82.23
2017-02-05T07:35:33.863Z,82.04
2017-02-05T07:36:44.052Z,81.56
2017-02-05T07:37:54.414Z,82.23
2017-02-05T07:39:04.983Z,82.23
2017-02-05T07:40:15.242Z,82.13
2017-02-05T07:41:25.165Z,82.23
2017-02-05T07:42:35.415Z,82.13
2017-02-05T07:43:45.277Z,82.23
2017-02-05T07:44:55.894Z,81.94
2017-02-05T07:46:05.736Z,81.66
2017-02-05T07:47:15.674Z,81.47
2017-02-05T07:48:25.927Z,81.75
2017-02-05T07:49:35.831Z,81.75
2017-02-05T07:50:46.584Z,81.66
2017-02-05T07:51:56.418Z,82.32
2017-02-05T07:53:06.746Z,82.13
2017-02-05T07:54:16.187Z,82.13
2017-02-05T07:55:25.618Z,81.85
2017-02-05T07:56:35.811Z,82.13
2017-02-05T07:57:45.683Z,81.94
2017-02-05T07:58:54.360Z,82.32
2017-02-05T08:00:04.186Z,82.13
2017-02-05T08:01:14.081Z,81.94
2017-02-05T08:02:24.687Z,82.13
2017-02-05T08:03:34.988Z,82.13
2017-02-05T08:04:44.863Z,82.04
2017-02-05T08:05:54.697Z,82.23
2017-02-05T08:07:04.556Z,82.32
2017-02-05T08:08:15.091Z,81.66
2017-02-05T08:09:24.989Z,81.75
2017-02-05T08:10:35.262Z,81.56
2017-02-05T08:11:45.135Z,81.56
2017-02-05T08:12:54.751Z,81.47
2017-02-05T08:14:05.307Z,81.66
2017-02-05T08:15:15.576Z,81.56
2017-02-05T08:16:25.430Z,81.85
2017-02-05T08:17:34.911Z,81.85
2017-02-05T08:18:44.841Z,81.56
2017-02-05T08:19:55.381Z,81.75
2017-02-05T08:21:05.689Z,81.27
2017-02-05T08:22:15.938Z,81.37
2017-02-05T08:23:26.289Z,81.66
2017-02-05T08:24:36.270Z,82.04
2017-02-05T08:25:46.031Z,81.66
2017-02-05T08:26:55.527Z,81.47
2017-02-05T08:28:04.952Z,81.94
2017-02-05T08:29:14.430Z,82.04
2017-02-05T08:30:24.763Z,82.32
2017-02-05T08:31:34.991Z,82.32
2017-02-05T08:32:44.860Z,82.13
2017-02-05T08:33:54.713Z,82.04
2017-02-05T08:35:04.666Z,82.13
2017-02-05T08:36:15.148Z,82.04
2017-02-05T08:37:25.333Z,82.32
2017-02-05T08:38:35.244Z,82.51
2017-02-05T08:39:44.825Z,82.79
2017-02-05T08:40:55.112Z,82.42
2017-02-05T08:42:04.951Z,82.51
2017-02-05T08:43:15.586Z,82.6
2017-02-05T08:44:26.075Z,82.51
2017-02-05T08:45:35.945Z,82.7
2017-02-05T08:46:45.415Z,82.04
2017-02-05T08:47:55.278Z,82.23
2017-02-05T08:49:05.853Z,82.13
2017-02-05T08:50:16.127Z,83.17
2017-02-05T08:51:25.954Z,83.17
2017-02-05T08:52:35.419Z,83.17
2017-02-05T08:53:45.832Z,82.89
2017-02-05T08:54:55.976Z,83.08
2017-02-05T08:56:05.826Z,83.36
2017-02-05T08:57:16.082Z,83.08
2017-02-05T08:58:26.559Z,83.36
2017-02-05T08:59:36.424Z,83.17
2017-02-05T09:00:47.116Z,83.08
2017-02-05T09:01:57.379Z,82.98
2017-02-05T09:03:07.659Z,83.36
2017-02-05T09:04:17.552Z,83.08
2017-02-05T09:05:27.425Z,82.89
2017-02-05T09:06:37.565Z,82.89
2017-02-05T09:07:47.487Z,83.08
2017-02-05T09:08:57.735Z,83.08
2017-02-05T09:10:07.980Z,83.08
2017-02-05T09:11:17.864Z,82.98
2017-02-05T09:12:28.005Z,83.17
2017-02-05T09:13:37.865Z,83.17
2017-02-05T09:14:47.305Z,82.98
2017-02-05T09:15:57.576Z,82.98
2017-02-05T09:17:07.827Z,82.32
2017-02-05T09:18:17.926Z,82.89
2017-02-05T09:19:27.786Z,82.13
2017-02-05T09:20:38.052Z,82.13
2017-02-05T09:21:48.299Z,82.23
2017-02-05T09:22:58.724Z,82.79
2017-02-05T09:24:09.332Z,82.42
2017-02-05T09:25:19.220Z,82.13
2017-02-05T09:26:29.079Z,82.42
2017-02-05T09:27:39.346Z,82.13
2017-02-05T09:28:49.191Z,82.23
2017-02-05T09:29:59.733Z,82.04
2017-02-05T09:31:09.655Z,82.13
2017-02-05T09:32:19.099Z,82.32
2017-02-05T09:33:29.378Z,82.13
2017-02-05T09:34:38.828Z,81.66
2017-02-05T09:35:48.930Z,81.56
2017-02-05T09:36:59.211Z,81.66
2017-02-05T09:38:09.517Z,81.37
2017-02-05T09:39:19.791Z,81.66
2017-02-05T09:40:29.259Z,81.85
2017-02-05T09:41:39.828Z,81.47
2017-02-05T09:42:49.719Z,81.85
2017-02-05T09:44:00.029Z,80.99
2017-02-05T09:45:10.164Z,81.27
2017-02-05T09:46:20.011Z,81.18
2017-02-05T09:47:30.102Z,81.27
2017-02-05T09:48:40.011Z,80.9
2017-02-05T09:49:50.264Z,80.9
2017-02-05T09:51:00.541Z,81.09
2017-02-05T09:52:10.794Z,80.99
2017-02-05T09:53:21.357Z,81.56
2017-02-05T09:54:31.623Z,80.99
2017-02-05T09:55:41.079Z,80.99
2017-02-05T09:56:51.382Z,80.9
2017-02-05T09:58:01.242Z,80.99
2017-02-05T09:59:11.373Z,81.09
2017-02-05T10:00:21.628Z,80.9
2017-02-05T10:01:31.882Z,80.52
2017-02-05T10:02:42.376Z,80.8
2017-02-05T10:03:52.373Z,80.62
2017-02-05T10:05:02.551Z,80.43
2017-02-05T10:06:12.407Z,80.71
2017-02-05T10:07:21.441Z,80.43
2017-02-05T10:08:31.765Z,80.52
2017-02-05T10:09:42.022Z,80.52
2017-02-05T10:10:52.554Z,80.71
2017-02-05T10:12:02.869Z,80.56
2017-02-05T10:13:13.136Z,80.52
2017-02-05T10:14:23.036Z,80.04
2017-02-05T10:15:33.288Z,80.62
2017-02-05T10:16:44.079Z,80.62
2017-02-05T10:17:54.782Z,79.95
2017-02-05T10:19:05.031Z,80.04
2017-02-05T10:20:15.335Z,80.62
2017-02-05T10:21:25.246Z,80.62
2017-02-05T10:22:35.143Z,80.84
2017-02-05T10:23:45.308Z,80.14
2017-02-05T10:24:55.217Z,79.85
2017-02-05T10:26:05.097Z,79.95
2017-02-05T10:27:15.066Z,80.04
2017-02-05T10:28:25.343Z,80.14
2017-02-05T10:29:35.479Z,79.95
2017-02-05T10:30:45.389Z,79.95
2017-02-05T10:31:55.243Z,80.14
2017-02-05T10:33:05.502Z,80.33
2017-02-05T10:34:15.812Z,80.9
2017-02-05T10:35:25.921Z,80.62
2017-02-05T10:36:36.213Z,80.62
2017-02-05T10:37:46.092Z,80.43
2017-02-05T10:38:55.973Z,80.43
2017-02-05T10:40:06.264Z,80.62
2017-02-05T10:41:16.006Z,80.43
2017-02-05T10:42:25.854Z,80.9
2017-02-05T10:43:36.096Z,80.9
2017-02-05T10:44:45.164Z,80.9
2017-02-05T10:45:55.018Z,80.14
2017-02-05T10:47:04.971Z,80.62
2017-02-05T10:48:15.255Z,80.52
2017-02-05T10:49:25.499Z,80.24
2017-02-05T10:50:35.739Z,80.52
2017-02-05T10:51:46.072Z,80.52
2017-02-05T10:52:56.318Z,80.99
2017-02-05T10:54:06.229Z,80.71
2017-02-05T10:55:16.515Z,80.52
2017-02-05T10:56:26.761Z,80.52
2017-02-05T10:57:36.591Z,80.8
2017-02-05T10:58:47.232Z,80.62
2017-02-05T10:59:57.506Z,80.24
2017-02-05T11:01:06.962Z,80.9
2017-02-05T11:02:17.215Z,80.71
2017-02-05T11:03:27.565Z,80.8
2017-02-05T11:04:38.264Z,81.09
2017-02-05T11:05:48.101Z,80.99
2017-02-05T11:06:58.341Z,80.71
2017-02-05T11:08:08.236Z,80.99
2017-02-05T11:09:18.539Z,80.33
2017-02-05T11:10:28.737Z,80.9
2017-02-05T11:11:39.028Z,81.18
2017-02-05T11:12:48.913Z,81.09
2017-02-05T11:13:59.170Z,81.09
2017-02-05T11:15:08.651Z,81.18
2017-02-05T11:16:19.204Z,80.71
2017-02-05T11:17:29.450Z,80.43
2017-02-05T11:18:39.300Z,80.24
2017-02-05T11:19:49.166Z,80.9
2017-02-05T11:20:59.415Z,80.9
2017-02-05T11:22:10.037Z,81.09
2017-02-05T11:23:20.004Z,80.99
2017-02-05T11:24:30.251Z,81.18
2017-02-05T11:25:39.705Z,80.99
2017-02-05T11:26:50.021Z,80.75
2017-02-05T11:28:00.168Z,80.56
2017-02-05T11:29:10.134Z,80.46
2017-02-05T11:30:19.974Z,80.65
2017-02-05T11:31:29.815Z,80.18
2017-02-05T11:32:40.061Z,80.37
2017-02-05T11:33:50.352Z,79.99
2017-02-05T11:35:00.287Z,80.37
2017-02-05T11:36:10.175Z,79.8
2017-02-05T11:37:20.085Z,80.08
2017-02-05T11:38:30.099Z,79.9
2017-02-05T11:39:40.271Z,80.08
2017-02-05T11:40:50.175Z,79.8
2017-02-05T11:42:32.262Z,79.8
2017-02-05T11:43:42.592Z,80.08
2017-02-05T11:44:52.921Z,79.71
2017-02-05T11:46:03.347Z,79.9
2017-02-05T11:47:13.664Z,80.18
2017-02-05T11:48:24.208Z,79.61
2017-02-05T11:49:34.468Z,79.9
2017-02-05T11:50:45.001Z,79.61
2017-02-05T11:51:54.962Z,79.71
2017-02-05T11:53:05.295Z,79.9
2017-02-05T11:54:15.599Z,79.9
2017-02-05T11:55:25.920Z,79.23
2017-02-05T11:56:36.501Z,79.23
2017-02-05T11:57:46.388Z,79.42
2017-02-05T11:58:56.511Z,79.14
2017-02-05T12:00:06.440Z,78.85
2017-02-05T12:01:16.831Z,79.04
2017-02-05T12:02:27.478Z,78.66
2017-02-05T12:03:36.966Z,78.85
2017-02-05T12:04:46.796Z,78.75
2017-02-05T12:05:56.682Z,78.56
2017-02-05T12:07:06.526Z,78.56
2017-02-05T12:08:16.758Z,78.85
2017-02-05T12:09:27.003Z,78.66
2017-02-05T12:10:37.291Z,78.95
2017-02-05T12:11:47.160Z,78.75
2017-02-05T12:12:56.602Z,79.04
2017-02-05T12:14:06.826Z,78.56
2017-02-05T12:15:17.084Z,78.38
2017-02-05T12:16:27.439Z,78.51
2017-02-05T12:17:37.323Z,78.61
2017-02-05T12:18:47.600Z,78.51
2017-02-05T12:19:57.811Z,77.84
2017-02-05T12:21:08.093Z,77.56
2017-02-05T12:22:17.574Z,77.75
2017-02-05T12:23:27.948Z,77.47
2017-02-05T12:24:37.885Z,77.84
2017-02-05T12:25:48.436Z,77.47
2017-02-05T12:26:58.301Z,77.47
2017-02-05T12:28:07.779Z,77.84
2017-02-05T12:29:17.337Z,77.28
2017-02-05T12:30:27.664Z,77.18
2017-02-05T12:31:37.858Z,77.94
2017-02-05T12:32:47.340Z,77.66
2017-02-05T12:33:57.188Z,77.47
2017-02-05T12:35:07.504Z,77.56
2017-02-05T12:36:17.841Z,77.84
2017-02-05T12:37:28.139Z,77.56
2017-02-05T12:38:37.670Z,77.66
2017-02-05T12:39:47.215Z,77.94
2017-02-05T12:40:57.063Z,77.84
2017-02-05T12:42:06.543Z,77.84
2017-02-05T12:43:17.200Z,77.94
2017-02-05T12:44:27.492Z,77.66
2017-02-05T12:45:37.789Z,77.94
2017-02-05T12:46:48.035Z,77.75
2017-02-05T12:47:57.884Z,77.75
2017-02-05T12:49:07.639Z,77.56
2017-02-05T12:50:17.576Z,77.84
2017-02-05T12:51:27.435Z,77.56
2017-02-05T12:52:37.743Z,77.56
2017-02-05T12:53:47.232Z,77.56
2017-02-05T12:54:57.826Z,77.75
2017-02-05T12:56:07.679Z,77.52
2017-02-05T12:57:18.045Z,77.66
2017-02-05T12:58:27.943Z,77.47
2017-02-05T12:59:37.836Z,77.66
2017-02-05T13:00:48.455Z,77.75
2017-02-05T13:01:59.524Z,77.56
2017-02-05T13:03:09.846Z,77.56
2017-02-05T13:04:19.306Z,77.56
2017-02-05T13:05:29.616Z,77.94
2017-02-05T13:06:39.850Z,77.75
2017-02-05T13:07:50.997Z,78.03
2017-02-05T13:09:01.277Z,77.94
2017-02-05T13:10:11.551Z,77.56
2017-02-05T13:11:21.012Z,77.47
2017-02-05T13:12:31.232Z,77.66
2017-02-05T13:13:41.594Z,77.75
2017-02-05T13:14:51.440Z,77.56
2017-02-05T13:16:01.851Z,77.56
2017-02-05T13:17:12.171Z,77.66
2017-02-05T13:18:22.767Z,77.75
2017-02-05T13:19:32.702Z,77.66
2017-02-05T13:20:42.387Z,77.47
2017-02-05T13:21:52.702Z,77.66
2017-02-05T13:23:02.571Z,77.66
2017-02-05T13:24:12.377Z,77.66
2017-02-05T13:25:22.646Z,77.94
2017-02-05T13:26:32.511Z,77.28
2017-02-05T13:27:42.764Z,76.99
2017-02-05T13:28:53.068Z,76.99
2017-02-05T13:30:03.654Z,77.18
2017-02-05T13:31:13.945Z,76.99
2017-02-05T13:32:23.843Z,76.99
2017-02-05T13:33:33.442Z,76.99
2017-02-05T13:34:42.479Z,77.09
2017-02-05T13:35:53.021Z,77.28
2017-02-05T13:37:02.921Z,77.09
2017-02-05T13:38:12.367Z,77.18
2017-02-05T13:39:22.630Z,76.8
2017-02-05T13:40:32.486Z,77.18
2017-02-05T13:41:43.131Z,77.18
2017-02-05T13:42:53.581Z,77.09
2017-02-05T13:44:03.871Z,77.09
2017-02-05T13:45:13.311Z,77.18
2017-02-05T13:46:23.175Z,76.99
2017-02-05T13:47:32.910Z,77.09
2017-02-05T13:48:42.761Z,76.9
2017-02-05T13:49:52.625Z,76.71
2017-02-05T13:51:02.485Z,76.61
2017-02-05T13:52:12.747Z,76.8
2017-02-05T13:53:22.589Z,76.8
2017-02-05T13:54:32.483Z,76.61
2017-02-05T13:55:42.830Z,76.8
2017-02-05T13:56:53.124Z,76.8
2017-02-05T13:58:03.404Z,76.8
2017-02-05T13:59:13.584Z,76.9
2017-02-05T14:00:23.880Z,76.71
2017-02-05T14:01:33.757Z,76.61
2017-02-05T14:02:43.620Z,76.71
2017-02-05T14:03:53.501Z,76.99
2017-02-05T14:05:03.627Z,76.9
2017-02-05T14:06:13.560Z,77.18
2017-02-05T14:07:23.457Z,76.99
2017-02-05T14:08:32.960Z,77.09
2017-02-05T14:09:42.850Z,76.99
2017-02-05T14:10:53.397Z,77.09
2017-02-05T14:12:03.239Z,77.18
2017-02-05T14:13:12.723Z,76.99
2017-02-05T14:14:23.079Z,77.18
2017-02-05T14:15:33.346Z,77.18
2017-02-05T14:16:43.580Z,77.84
2017-02-05T14:17:53.830Z,77.56
2017-02-05T14:19:03.685Z,77.75
2017-02-05T14:20:13.963Z,77.66
2017-02-05T14:21:23.941Z,77.94
2017-02-05T14:22:34.545Z,77.75
2017-02-05T14:23:44.904Z,77.66
2017-02-05T14:24:54.818Z,78.13
2017-02-05T14:26:04.299Z,78.03
2017-02-05T14:27:14.202Z,78.13
2017-02-05T14:28:24.798Z,78.51
2017-02-05T14:29:34.644Z,78.23
2017-02-05T14:30:44.894Z,78.42
2017-02-05T14:31:55.186Z,78.42
2017-02-05T14:33:05.033Z,78.13
2017-02-05T14:34:15.687Z,78.23
2017-02-05T14:35:25.942Z,78.42
2017-02-05T14:36:35.776Z,78.23
2017-02-05T14:37:46.013Z,78.23
2017-02-05T14:38:55.472Z,78.03
2017-02-05T14:40:05.730Z,78.13
2017-02-05T14:41:15.617Z,77.84
2017-02-05T14:42:26.058Z,78.51
2017-02-05T14:43:36.017Z,78.42
2017-02-05T14:44:45.872Z,78.51
2017-02-05T14:45:56.077Z,78.61
2017-02-05T14:47:06.332Z,78.51
2017-02-05T14:48:16.578Z,78.32
2017-02-05T14:49:26.095Z,78.8
2017-02-05T14:50:35.990Z,78.51
2017-02-05T14:51:46.195Z,78.7
2017-02-05T14:52:56.473Z,78.89
2017-02-05T14:54:06.761Z,78.89
2017-02-05T14:55:17.022Z,78.89
2017-02-05T14:56:26.948Z,78.89
2017-02-05T14:57:37.691Z,79.17
2017-02-05T14:58:47.602Z,78.7
2017-02-05T14:59:57.039Z,78.99
2017-02-05T15:01:07.348Z,78.99
2017-02-05T15:02:17.259Z,79.08
2017-02-05T15:03:27.865Z,78.8
2017-02-05T15:04:37.725Z,79.17
2017-02-05T15:05:47.704Z,79.17